Terminal Aerodrome Forecast
Issued by NWS

Home | Current Version | Previous Version | Text Only | Print | Product List | Glossary On
Versions: 1 2 3 4 5 6 7 8 9 10 11 12 13 14 15 16 17 18
683
FTUS45 KVEF 271126
TAFVGT
TAF
KVGT 271126Z 2712/2812 VRB06KT P6SM FEW180
     FM271700 12006KT P6SM FEW120
     FM280500 34007KT P6SM SKC=

USA.gov is the U.S. government's official web portal to all federal, state and local government web resources and services.